Time;durP1;ratioP1;P1;durP2;ratioP2;P2;SDS_P1;SDS_P2;PMS_P1;PMS_P2;Temp;Humidity;BMP_temperature;BMP_pressure;BME280_temperature;BME280_humidity;BME280_pressure;Samples;Min_cycle;Max_cycle;Signal;HPM_P1;HPM_P2
2023/01/23 00:01:45;;;;;;;18.13;16.33;;;;;;;;;;5072403;28;20406;-85
2023/01/23 00:04:12;;;;;;;18.20;16.27;;;;;;;;;;5069302;28;20384;-85
2023/01/23 00:06:39;;;;;;;18.03;16.23;;;;;;;;;;5058343;28;20464;-85
2023/01/23 00:09:06;;;;;;;17.60;15.80;;;;;;;;;;5063563;28;20387;-85
2023/01/23 00:11:35;;;;;;;17.85;16.05;;;;;;;;;;5072452;28;20885;-85
2023/01/23 00:14:01;;;;;;;17.83;15.98;;;;;;;;;;5073260;28;20912;-84
2023/01/23 00:16:29;;;;;;;18.50;16.60;;;;;;;;;;5073894;28;20398;-85
2023/01/23 00:18:55;;;;;;;16.43;14.93;;;;;;;;;;5074276;28;20460;-83
2023/01/23 00:21:23;;;;;;;17.42;15.63;;;;;;;;;;5073871;28;20507;-85
2023/01/23 00:23:51;;;;;;;16.88;15.18;;;;;;;;;;5074650;28;20409;-84
2023/01/23 00:26:18;;;;;;;18.02;16.15;;;;;;;;;;5056871;28;20462;-86
2023/01/23 00:28:48;;;;;;;16.75;15.15;;;;;;;;;;5074053;28;20458;-84
2023/01/23 00:31:19;;;;;;;15.85;14.35;;;;;;;;;;5074132;28;20495;-86
2023/01/23 00:33:45;;;;;;;15.60;14.10;;;;;;;;;;5074873;28;20423;-85
2023/01/23 00:36:12;;;;;;;15.40;13.90;;;;;;;;;;5054450;28;20411;-85
2023/01/23 00:38:38;;;;;;;15.15;13.68;;;;;;;;;;5075358;28;20452;-86
2023/01/23 00:41:04;;;;;;;15.35;13.95;;;;;;;;;;5074275;28;20952;-85
2023/01/23 00:43:30;;;;;;;15.60;14.05;;;;;;;;;;5074628;28;20376;-86
2023/01/23 00:45:56;;;;;;;16.02;14.43;;;;;;;;;;5073306;28;20379;-85
2023/01/23 00:48:22;;;;;;;16.08;14.20;;;;;;;;;;5059597;28;20789;-85
2023/01/23 00:50:48;;;;;;;14.70;13.30;;;;;;;;;;5075206;28;20395;-86
2023/01/23 00:53:15;;;;;;;15.98;14.43;;;;;;;;;;5057621;28;20411;-86
2023/01/23 00:55:41;;;;;;;16.20;14.60;;;;;;;;;;5075500;28;20376;-85
2023/01/23 00:58:07;;;;;;;16.33;14.63;;;;;;;;;;5057362;28;20384;-85
2023/01/23 01:00:34;;;;;;;15.60;14.10;;;;;;;;;;5066161;28;20499;-84
2023/01/23 01:03:00;;;;;;;15.75;14.30;;;;;;;;;;5076373;28;20375;-86
2023/01/23 01:05:26;;;;;;;15.60;14.10;;;;;;;;;;5060328;28;20398;-84
2023/01/23 01:07:52;;;;;;;16.33;14.73;;;;;;;;;;5077563;28;20426;-83
2023/01/23 01:10:18;;;;;;;15.63;14.03;;;;;;;;;;5076510;28;20747;-83
2023/01/23 01:12:45;;;;;;;15.65;14.13;;;;;;;;;;5074054;28;20470;-83
2023/01/23 01:15:12;;;;;;;15.15;13.75;;;;;;;;;;5074100;28;20392;-84
2023/01/23 01:17:38;;;;;;;15.00;13.50;;;;;;;;;;5074900;28;20472;-85
2023/01/23 01:20:05;;;;;;;15.48;14.00;;;;;;;;;;5085221;28;20409;-85
2023/01/23 01:22:31;;;;;;;15.77;14.27;;;;;;;;;;5062445;28;20409;-84
2023/01/23 01:24:57;;;;;;;14.88;13.48;;;;;;;;;;5053837;28;20447;-83
2023/01/23 01:27:23;;;;;;;14.80;13.50;;;;;;;;;;5053795;28;20377;-84
2023/01/23 01:29:49;;;;;;;15.15;13.75;;;;;;;;;;5053415;28;20928;-83
2023/01/23 01:32:15;;;;;;;14.50;13.20;;;;;;;;;;5054283;28;20400;-84
2023/01/23 01:34:41;;;;;;;16.17;14.68;;;;;;;;;;5053510;28;20417;-84
2023/01/23 01:37:07;;;;;;;15.38;13.88;;;;;;;;;;5065084;28;20376;-84
2023/01/23 01:39:33;;;;;;;15.35;13.85;;;;;;;;;;5074428;28;20388;-83
2023/01/23 01:41:59;;;;;;;15.27;13.87;;;;;;;;;;5083251;28;20374;-83
2023/01/23 01:44:26;;;;;;;14.90;13.50;;;;;;;;;;5064784;28;20445;-84
2023/01/23 01:46:53;;;;;;;15.53;14.03;;;;;;;;;;5053515;28;20512;-85
2023/01/23 01:49:24;;;;;;;16.10;14.50;;;;;;;;;;5053615;28;20397;-85
2023/01/23 01:51:54;;;;;;;16.07;14.47;;;;;;;;;;5053891;28;20460;-84
2023/01/23 01:54:35;;;;;;;15.82;14.27;;;;;;;;;;5053875;28;20388;-84
2023/01/23 01:57:08;;;;;;;16.33;14.73;;;;;;;;;;5041689;28;20726;-84
2023/01/23 01:59:47;;;;;;;15.13;13.75;;;;;;;;;;5054217;28;20428;-84
2023/01/23 02:02:15;;;;;;;15.35;13.95;;;;;;;;;;5060560;28;20388;-84
2023/01/23 02:04:47;;;;;;;16.13;14.52;;;;;;;;;;5056390;28;20892;-84
2023/01/23 02:07:25;;;;;;;15.88;14.27;;;;;;;;;;5075083;28;20368;-83
2023/01/23 02:09:52;;;;;;;16.88;15.18;;;;;;;;;;5074410;28;20379;-85
2023/01/23 02:12:18;;;;;;;16.80;15.10;;;;;;;;;;5076748;28;20379;-87
2023/01/23 02:14:44;;;;;;;16.80;15.10;;;;;;;;;;5086463;28;20380;-83
2023/01/23 02:17:10;;;;;;;17.38;15.60;;;;;;;;;;5074985;28;20383;-84
2023/01/23 02:19:36;;;;;;;17.08;15.38;;;;;;;;;;5074707;28;20395;-84
2023/01/23 02:22:21;;;;;;;17.83;16.00;;;;;;;;;;5081536;28;20384;-84
2023/01/23 02:24:54;;;;;;;16.92;15.23;;;;;;;;;;5082193;28;20911;-84
2023/01/23 02:27:20;;;;;;;18.25;16.40;;;;;;;;;;5086956;28;20436;-84
2023/01/23 02:29:47;;;;;;;18.27;16.45;;;;;;;;;;5072819;28;20935;-83
2023/01/23 02:32:13;;;;;;;19.63;16.95;;;;;;;;;;5083050;28;20444;-84
2023/01/23 02:34:39;;;;;;;17.30;15.60;;;;;;;;;;5056287;28;20888;-84
2023/01/23 02:37:06;;;;;;;16.85;15.20;;;;;;;;;;5075072;28;20376;-83
2023/01/23 02:39:32;;;;;;;16.10;14.60;;;;;;;;;;5076516;28;20380;-84
2023/01/23 02:42:00;;;;;;;17.67;15.90;;;;;;;;;;5055666;28;20395;-84
2023/01/23 02:44:30;;;;;;;16.08;14.57;;;;;;;;;;5047534;28;20401;-84
2023/01/23 02:46:57;;;;;;;15.38;13.88;;;;;;;;;;5067013;28;20823;-84
2023/01/23 02:49:23;;;;;;;14.98;13.57;;;;;;;;;;5079370;28;20383;-84
2023/01/23 02:51:50;;;;;;;14.80;13.40;;;;;;;;;;5080804;28;20470;-84
2023/01/23 02:54:17;;;;;;;14.80;13.50;;;;;;;;;;5080587;28;20375;-84
2023/01/23 02:56:43;;;;;;;13.85;12.55;;;;;;;;;;5081701;28;20381;-84
2023/01/23 03:01:55;;;;;;;14.05;12.80;;;;;;;;;;5077705;28;20442;-84
2023/01/23 03:04:21;;;;;;;14.13;12.82;;;;;;;;;;5078933;28;20371;-84
2023/01/23 03:06:47;;;;;;;14.52;13.15;;;;;;;;;;5078960;28;20916;-84
2023/01/23 03:09:14;;;;;;;13.48;12.27;;;;;;;;;;5078880;28;20419;-84
2023/01/23 03:11:41;;;;;;;14.20;12.80;;;;;;;;;;5078324;28;20837;-84
2023/01/23 03:14:09;;;;;;;13.50;12.35;;;;;;;;;;5074720;28;20394;-84
2023/01/23 03:16:35;;;;;;;12.60;11.50;;;;;;;;;;5077799;28;20378;-84
2023/01/23 03:19:04;;;;;;;12.90;11.80;;;;;;;;;;5065298;28;20749;-84
2023/01/23 03:21:31;;;;;;;13.00;11.80;;;;;;;;;;5077897;28;20411;-84
2023/01/23 03:23:57;;;;;;;13.65;12.45;;;;;;;;;;5077814;28;20856;-84
2023/01/23 03:26:23;;;;;;;12.90;11.70;;;;;;;;;;5077624;28;20506;-84
2023/01/23 03:31:34;;;;;;;12.27;11.07;;;;;;;;;;5077530;28;20367;-84
2023/01/23 03:34:00;;;;;;;12.40;11.30;;;;;;;;;;5077218;28;20466;-84
2023/01/23 03:36:26;;;;;;;12.68;11.57;;;;;;;;;;5077503;28;20444;-84
2023/01/23 03:41:40;;;;;;;13.02;11.93;;;;;;;;;;5077259;28;20456;-84
2023/01/23 03:44:06;;;;;;;12.65;11.55;;;;;;;;;;5077130;28;20458;-84
2023/01/23 03:46:32;;;;;;;12.85;11.63;;;;;;;;;;5077498;28;20391;-84
2023/01/23 03:48:58;;;;;;;12.95;11.75;;;;;;;;;;5077657;28;20390;-84
2023/01/23 03:51:24;;;;;;;12.38;11.27;;;;;;;;;;5073643;28;20742;-84
2023/01/23 03:53:50;;;;;;;13.05;11.85;;;;;;;;;;5077572;28;20510;-84
2023/01/23 03:56:16;;;;;;;12.90;11.80;;;;;;;;;;5075305;28;20383;-84
2023/01/23 03:58:42;;;;;;;13.60;12.30;;;;;;;;;;5074369;28;20384;-84
2023/01/23 04:01:09;;;;;;;14.20;12.88;;;;;;;;;;5067443;28;20509;-84
2023/01/23 04:03:35;;;;;;;14.27;12.98;;;;;;;;;;5074842;28;20871;-84
2023/01/23 04:06:01;;;;;;;14.02;12.73;;;;;;;;;;5075243;28;20752;-84
2023/01/23 04:08:28;;;;;;;14.40;13.00;;;;;;;;;;5074834;28;20718;-84
2023/01/23 04:11:07;;;;;;;14.77;13.38;;;;;;;;;;5075384;28;20380;-84
2023/01/23 04:13:33;;;;;;;14.63;13.23;;;;;;;;;;5066341;28;20381;-84
2023/01/23 04:15:59;;;;;;;14.93;13.52;;;;;;;;;;5054846;28;20789;-84
2023/01/23 04:18:26;;;;;;;14.75;13.32;;;;;;;;;;5055395;28;20419;-84
2023/01/23 04:20:52;;;;;;;15.57;14.05;;;;;;;;;;5054848;28;20405;-84
2023/01/23 04:23:18;;;;;;;16.23;14.60;;;;;;;;;;5064704;28;20856;-84
2023/01/23 04:25:44;;;;;;;15.40;13.98;;;;;;;;;;5059042;28;20405;-84
2023/01/23 04:28:10;;;;;;;16.08;14.48;;;;;;;;;;5059086;28;20476;-83
2023/01/23 04:30:36;;;;;;;15.45;14.05;;;;;;;;;;5054988;28;20394;-84
2023/01/23 04:33:01;;;;;;;15.55;14.05;;;;;;;;;;5072093;28;20387;-84
2023/01/23 04:35:27;;;;;;;16.57;14.87;;;;;;;;;;5075900;28;20412;-85
2023/01/23 04:37:53;;;;;;;17.02;15.35;;;;;;;;;;5076242;28;20864;-84
2023/01/23 04:40:20;;;;;;;17.00;15.30;;;;;;;;;;5074946;28;20408;-85
2023/01/23 04:42:46;;;;;;;16.75;15.00;;;;;;;;;;5075302;28;20413;-84
2023/01/23 04:45:12;;;;;;;16.58;14.98;;;;;;;;;;5075899;28;20756;-85
2023/01/23 04:47:38;;;;;;;17.08;15.38;;;;;;;;;;5075929;28;20430;-85
2023/01/23 04:50:05;;;;;;;16.43;14.83;;;;;;;;;;5075961;28;20466;-85
2023/01/23 04:52:31;;;;;;;16.02;14.52;;;;;;;;;;5075063;28;20380;-85
2023/01/23 04:54:57;;;;;;;16.40;14.88;;;;;;;;;;5079123;28;20861;-84
2023/01/23 04:57:24;;;;;;;16.08;14.48;;;;;;;;;;5077659;28;20460;-84
2023/01/23 04:59:50;;;;;;;17.40;15.60;;;;;;;;;;5055699;28;20389;-84
2023/01/23 05:02:16;;;;;;;17.08;15.38;;;;;;;;;;5074585;28;20368;-84
2023/01/23 05:04:42;;;;;;;15.25;13.85;;;;;;;;;;5057752;28;20395;-83
2023/01/23 05:07:10;;;;;;;17.02;15.32;;;;;;;;;;5076662;28;20386;-84
2023/01/23 05:09:37;;;;;;;16.25;14.65;;;;;;;;;;5075439;28;20384;-83
2023/01/23 05:12:03;;;;;;;16.87;15.17;;;;;;;;;;5074431;28;20479;-84
2023/01/23 05:14:29;;;;;;;17.85;15.95;;;;;;;;;;5074663;28;20387;-84
2023/01/23 05:16:55;;;;;;;15.80;14.20;;;;;;;;;;5057099;28;20395;-84
2023/01/23 05:19:21;;;;;;;17.02;14.95;;;;;;;;;;5077674;28;20792;-84
2023/01/23 05:21:47;;;;;;;18.17;16.23;;;;;;;;;;5074952;28;20404;-84
2023/01/23 05:24:13;;;;;;;16.45;14.85;;;;;;;;;;5057882;28;20384;-84
2023/01/23 05:26:39;;;;;;;17.58;15.77;;;;;;;;;;5076039;28;20376;-85
2023/01/23 05:29:05;;;;;;;17.63;15.82;;;;;;;;;;5058561;28;20926;-86
2023/01/23 05:31:31;;;;;;;17.55;15.82;;;;;;;;;;5064815;28;20395;-86
2023/01/23 05:33:57;;;;;;;17.98;16.20;;;;;;;;;;5051597;28;20957;-86
2023/01/23 05:36:23;;;;;;;17.85;16.05;;;;;;;;;;5061471;28;20402;-85
2023/01/23 05:38:49;;;;;;;16.90;15.10;;;;;;;;;;5074937;28;20430;-85
2023/01/23 05:41:15;;;;;;;16.58;14.88;;;;;;;;;;5072915;28;20403;-86
2023/01/23 05:43:41;;;;;;;16.87;15.17;;;;;;;;;;5072795;28;20738;-85
2023/01/23 05:46:07;;;;;;;17.10;15.30;;;;;;;;;;5075838;28;20459;-85
2023/01/23 05:48:33;;;;;;;16.53;14.87;;;;;;;;;;5090171;28;20399;-86
2023/01/23 05:51:01;;;;;;;16.35;14.75;;;;;;;;;;5076449;28;20476;-85
2023/01/23 05:53:27;;;;;;;16.75;15.05;;;;;;;;;;5076402;28;20407;-85
2023/01/23 05:55:53;;;;;;;16.35;14.63;;;;;;;;;;5086652;28;20399;-87
2023/01/23 05:58:19;;;;;;;15.77;14.10;;;;;;;;;;5077880;28;20380;-86
2023/01/23 06:00:45;;;;;;;16.65;15.00;;;;;;;;;;5061994;28;20403;-86
2023/01/23 06:03:11;;;;;;;15.70;14.10;;;;;;;;;;5091280;28;20387;-86
2023/01/23 06:05:37;;;;;;;16.08;14.38;;;;;;;;;;5082094;28;20382;-87
2023/01/23 06:08:05;;;;;;;15.52;13.93;;;;;;;;;;5059660;28;21304;-86
2023/01/23 06:10:31;;;;;;;16.13;14.43;;;;;;;;;;5056443;28;20384;-85
2023/01/23 06:12:57;;;;;;;15.82;14.23;;;;;;;;;;5073613;28;20388;-86
2023/01/23 06:15:23;;;;;;;21.33;17.38;;;;;;;;;;5056368;28;20383;-86
2023/01/23 06:17:49;;;;;;;18.13;15.47;;;;;;;;;;5072873;28;20368;-86
2023/01/23 06:20:15;;;;;;;15.90;14.20;;;;;;;;;;5072910;28;20430;-86
2023/01/23 06:22:41;;;;;;;15.18;13.68;;;;;;;;;;5055780;28;20473;-85
2023/01/23 06:25:07;;;;;;;15.27;13.70;;;;;;;;;;5068721;28;20379;-87
2023/01/23 06:27:33;;;;;;;15.18;13.65;;;;;;;;;;5076380;28;20391;-86
2023/01/23 06:29:59;;;;;;;15.67;13.83;;;;;;;;;;5073752;28;20714;-87
2023/01/23 06:32:25;;;;;;;16.15;14.45;;;;;;;;;;5071469;28;20380;-85
2023/01/23 06:34:51;;;;;;;19.87;16.60;;;;;;;;;;5071708;28;20489;-87
2023/01/23 06:37:17;;;;;;;15.48;13.98;;;;;;;;;;5052845;28;20897;-85
2023/01/23 06:39:43;;;;;;;16.00;14.07;;;;;;;;;;5072354;28;20400;-85
2023/01/23 06:42:09;;;;;;;15.02;13.52;;;;;;;;;;5056034;28;20396;-86
2023/01/23 06:44:36;;;;;;;18.00;14.77;;;;;;;;;;5057069;28;21167;-87
2023/01/23 06:47:02;;;;;;;18.37;15.10;;;;;;;;;;5055737;28;20726;-86
2023/01/23 06:49:28;;;;;;;15.98;14.27;;;;;;;;;;5055296;28;20380;-86
2023/01/23 06:51:54;;;;;;;14.98;13.38;;;;;;;;;;5073691;28;20933;-86
2023/01/23 06:54:20;;;;;;;14.35;12.82;;;;;;;;;;5055690;28;20458;-85
2023/01/23 06:56:48;;;;;;;14.25;12.75;;;;;;;;;;5073305;28;20375;-85
2023/01/23 06:59:14;;;;;;;12.80;11.52;;;;;;;;;;5069793;28;20464;-85
2023/01/23 07:01:40;;;;;;;12.98;11.68;;;;;;;;;;5059244;28;20437;-87
2023/01/23 07:04:07;;;;;;;15.43;13.02;;;;;;;;;;5044620;28;20384;-85
2023/01/23 07:06:34;;;;;;;13.23;11.98;;;;;;;;;;5059270;28;20382;-86
2023/01/23 07:09:00;;;;;;;13.88;12.43;;;;;;;;;;5075050;28;20379;-85
2023/01/23 07:11:25;;;;;;;12.63;11.43;;;;;;;;;;5088189;28;20373;-87
2023/01/23 07:13:52;;;;;;;12.95;11.65;;;;;;;;;;5055845;28;20890;-87
2023/01/23 07:16:18;;;;;;;12.27;11.18;;;;;;;;;;5074418;28;20443;-85
2023/01/23 07:18:45;;;;;;;12.40;10.75;;;;;;;;;;5053730;28;20445;-84
2023/01/23 07:21:11;;;;;;;12.15;11.05;;;;;;;;;;5068462;28;20888;-85
2023/01/23 07:23:37;;;;;;;12.52;11.32;;;;;;;;;;5074692;28;20376;-88
2023/01/23 07:26:08;;;;;;;12.15;11.05;;;;;;;;;;5077701;28;20383;-87
2023/01/23 07:28:34;;;;;;;13.07;11.77;;;;;;;;;;5074988;28;20379;-87
2023/01/23 07:31:00;;;;;;;14.40;13.00;;;;;;;;;;5057443;28;20423;-86
2023/01/23 07:33:26;;;;;;;14.57;12.63;;;;;;;;;;5078513;28;20384;-87
2023/01/23 07:35:52;;;;;;;15.20;13.32;;;;;;;;;;5078075;28;20469;-85
2023/01/23 07:38:18;;;;;;;16.80;14.80;;;;;;;;;;5078004;28;20442;-85
2023/01/23 07:40:44;;;;;;;15.48;13.93;;;;;;;;;;5077292;28;20760;-85
2023/01/23 07:43:11;;;;;;;17.38;15.05;;;;;;;;;;5076403;28;20388;-86
2023/01/23 07:45:37;;;;;;;18.30;15.73;;;;;;;;;;5055204;28;20400;-87
2023/01/23 07:48:03;;;;;;;17.95;15.75;;;;;;;;;;5072337;28;20460;-83
2023/01/23 07:50:29;;;;;;;18.25;15.82;;;;;;;;;;5077000;28;20445;-85
2023/01/23 07:52:55;;;;;;;18.27;16.15;;;;;;;;;;5076720;28;20383;-85
2023/01/23 07:55:21;;;;;;;18.23;16.15;;;;;;;;;;5076681;28;20387;-85
2023/01/23 07:57:47;;;;;;;18.80;15.82;;;;;;;;;;5076930;28;20391;-86
2023/01/23 08:00:13;;;;;;;19.55;16.50;;;;;;;;;;5067801;28;20829;-86
2023/01/23 08:02:39;;;;;;;18.27;16.13;;;;;;;;;;5073166;28;20368;-85
2023/01/23 08:05:05;;;;;;;20.23;17.15;;;;;;;;;;5075766;28;20796;-85
2023/01/23 08:07:32;;;;;;;18.00;15.57;;;;;;;;;;5076079;28;20378;-85
2023/01/23 08:09:58;;;;;;;23.60;17.52;;;;;;;;;;5076213;28;20383;-85
2023/01/23 08:12:24;;;;;;;18.73;16.67;;;;;;;;;;5073962;28;20392;-84
2023/01/23 08:14:50;;;;;;;19.55;16.55;;;;;;;;;;5071911;28;20853;-84
2023/01/23 08:17:16;;;;;;;18.08;16.05;;;;;;;;;;5075976;28;20463;-86
2023/01/23 08:19:42;;;;;;;20.23;17.23;;;;;;;;;;5075957;28;20372;-86
2023/01/23 08:22:08;;;;;;;23.23;18.90;;;;;;;;;;5075402;28;20395;-86
2023/01/23 08:24:34;;;;;;;21.90;18.15;;;;;;;;;;5075734;28;20837;-86
2023/01/23 08:27:00;;;;;;;22.92;19.27;;;;;;;;;;5075924;28;20379;-86
2023/01/23 08:29:26;;;;;;;22.27;18.30;;;;;;;;;;5072152;28;20403;-87
2023/01/23 08:31:53;;;;;;;21.65;18.23;;;;;;;;;;5067110;28;20870;-85
2023/01/23 08:34:20;;;;;;;19.03;17.00;;;;;;;;;;5071493;28;20383;-85
2023/01/23 08:36:46;;;;;;;19.80;17.25;;;;;;;;;;5076223;28;20379;-85
2023/01/23 08:39:12;;;;;;;20.45;17.02;;;;;;;;;;5075979;28;20391;-85
2023/01/23 08:41:38;;;;;;;19.17;16.30;;;;;;;;;;5069252;28;20427;-85
2023/01/23 08:44:04;;;;;;;18.75;16.42;;;;;;;;;;5074679;28;20379;-86
2023/01/23 08:46:30;;;;;;;18.50;16.50;;;;;;;;;;5067748;28;20379;-86
2023/01/23 08:48:56;;;;;;;18.38;15.60;;;;;;;;;;5056567;28;20441;-85
2023/01/23 08:51:22;;;;;;;17.90;16.00;;;;;;;;;;5075682;28;20506;-85
2023/01/23 08:53:50;;;;;;;19.08;16.52;;;;;;;;;;5075355;28;20391;-86
2023/01/23 08:56:18;;;;;;;17.98;15.75;;;;;;;;;;5074981;28;20384;-85
2023/01/23 08:58:44;;;;;;;19.73;16.27;;;;;;;;;;5078774;28;20384;-86
2023/01/23 09:01:11;;;;;;;19.27;17.02;;;;;;;;;;5075311;28;20400;-86
2023/01/23 09:03:37;;;;;;;18.98;16.52;;;;;;;;;;5075487;28;20929;-86
2023/01/23 09:06:04;;;;;;;18.30;15.75;;;;;;;;;;5075694;28;20383;-86
2023/01/23 09:08:30;;;;;;;18.33;15.98;;;;;;;;;;5075307;28;20384;-86
2023/01/23 09:11:00;;;;;;;17.02;15.10;;;;;;;;;;5074247;28;20371;-87
2023/01/23 09:13:26;;;;;;;17.55;15.65;;;;;;;;;;5073699;28;20858;-86
2023/01/23 09:15:52;;;;;;;18.35;16.45;;;;;;;;;;5075494;28;20967;-86
2023/01/23 09:18:21;;;;;;;18.35;16.35;;;;;;;;;;5085225;28;20382;-86
2023/01/23 09:20:47;;;;;;;21.13;17.58;;;;;;;;;;5057863;28;20460;-86
2023/01/23 09:23:13;;;;;;;18.00;16.10;;;;;;;;;;5063306;28;20445;-85
2023/01/23 09:25:39;;;;;;;21.13;18.27;;;;;;;;;;5079489;28;20372;-86
2023/01/23 09:28:06;;;;;;;17.52;15.73;;;;;;;;;;5085873;28;20497;-85
2023/01/23 09:30:32;;;;;;;16.27;14.57;;;;;;;;;;5091988;28;20376;-85
2023/01/23 09:32:58;;;;;;;16.60;14.90;;;;;;;;;;5073566;28;20396;-85
2023/01/23 09:35:24;;;;;;;16.77;15.07;;;;;;;;;;5091127;28;20407;-85
2023/01/23 09:37:59;;;;;;;17.10;15.35;;;;;;;;;;5083595;28;20376;-86
2023/01/23 09:40:34;;;;;;;16.00;14.40;;;;;;;;;;5074853;28;20446;-86
2023/01/23 09:43:09;;;;;;;16.13;14.43;;;;;;;;;;5074927;28;20456;-86
2023/01/23 09:45:35;;;;;;;16.02;14.43;;;;;;;;;;5074988;28;20379;-85
2023/01/23 09:48:04;;;;;;;15.95;14.35;;;;;;;;;;5074357;28;20384;-86
2023/01/23 09:50:33;;;;;;;15.80;14.20;;;;;;;;;;5074602;28;20436;-86
2023/01/23 09:53:01;;;;;;;15.82;14.18;;;;;;;;;;5074291;28;20379;-86
2023/01/23 09:55:29;;;;;;;15.18;13.65;;;;;;;;;;5072868;28;20388;-87
2023/01/23 09:57:57;;;;;;;15.27;13.77;;;;;;;;;;5073762;28;20388;-86
2023/01/23 10:00:28;;;;;;;14.90;13.50;;;;;;;;;;5064906;28;20415;-84
2023/01/23 10:02:55;;;;;;;14.68;13.18;;;;;;;;;;5081512;28;20415;-87
2023/01/23 10:05:30;;;;;;;14.85;13.45;;;;;;;;;;5073612;28;20372;-86
2023/01/23 10:07:56;;;;;;;15.25;13.75;;;;;;;;;;5064491;28;20404;-85
2023/01/23 10:10:37;;;;;;;14.80;13.30;;;;;;;;;;5057073;28;20376;-85
2023/01/23 10:13:15;;;;;;;14.68;13.25;;;;;;;;;;5054156;28;20383;-85
2023/01/23 10:15:56;;;;;;;14.93;13.52;;;;;;;;;;5069744;28;20391;-85
2023/01/23 10:18:30;;;;;;;14.57;13.07;;;;;;;;;;5074575;28;20384;-85
2023/01/23 10:21:02;;;;;;;15.15;13.55;;;;;;;;;;5056983;28;20411;-85
2023/01/23 10:23:39;;;;;;;15.07;13.57;;;;;;;;;;5074612;28;20382;-84
2023/01/23 10:26:15;;;;;;;16.05;13.93;;;;;;;;;;5073580;28;20425;-86
2023/01/23 10:28:43;;;;;;;18.73;14.82;;;;;;;;;;5053001;28;20384;-85
2023/01/23 10:31:12;;;;;;;16.15;14.45;;;;;;;;;;5073900;28;20386;-85
2023/01/23 10:33:38;;;;;;;16.70;14.63;;;;;;;;;;5073728;28;20376;-86
2023/01/23 10:36:18;;;;;;;20.00;17.13;;;;;;;;;;5055125;28;20999;-85
2023/01/23 10:38:59;;;;;;;26.10;20.40;;;;;;;;;;5066642;28;20387;-86
2023/01/23 10:41:25;;;;;;;25.88;19.02;;;;;;;;;;5072418;28;20428;-86
2023/01/23 10:43:52;;;;;;;34.17;21.75;;;;;;;;;;5053065;28;20904;-85
2023/01/23 10:46:30;;;;;;;19.13;17.02;;;;;;;;;;5071211;28;20382;-85
2023/01/23 10:48:58;;;;;;;17.98;16.10;;;;;;;;;;5060987;28;20473;-86
2023/01/23 10:51:30;;;;;;;18.88;16.73;;;;;;;;;;5069701;28;20396;-86
2023/01/23 10:54:02;;;;;;;19.50;17.33;;;;;;;;;;5051679;28;20753;-86
2023/01/23 10:56:28;;;;;;;19.85;16.85;;;;;;;;;;5073640;28;20451;-85
2023/01/23 10:58:58;;;;;;;20.23;17.20;;;;;;;;;;5072110;28;20462;-84
2023/01/23 11:01:25;;;;;;;19.13;16.90;;;;;;;;;;5050619;28;20582;-85
2023/01/23 11:03:51;;;;;;;21.08;17.90;;;;;;;;;;5070341;28;20375;-85
2023/01/23 11:06:20;;;;;;;21.30;18.02;;;;;;;;;;5065374;28;20373;-87
2023/01/23 11:08:56;;;;;;;20.77;17.65;;;;;;;;;;5074363;28;20864;-86
2023/01/23 11:11:27;;;;;;;22.85;18.33;;;;;;;;;;5075227;28;20425;-85
2023/01/23 11:14:05;;;;;;;22.30;18.35;;;;;;;;;;5075772;28;20383;-86
2023/01/23 11:16:31;;;;;;;22.42;18.40;;;;;;;;;;5066446;28;20384;-87
2023/01/23 11:19:10;;;;;;;21.35;17.73;;;;;;;;;;5075367;28;20410;-86
2023/01/23 11:21:37;;;;;;;21.60;18.57;;;;;;;;;;5053037;28;20723;-86
2023/01/23 11:24:15;;;;;;;22.42;18.17;;;;;;;;;;5070390;28;20377;-86
2023/01/23 11:26:41;;;;;;;21.75;17.85;;;;;;;;;;5075338;28;20383;-85
2023/01/23 11:29:24;;;;;;;22.95;18.40;;;;;;;;;;5075808;28;20387;-85
2023/01/23 11:31:57;;;;;;;21.37;17.93;;;;;;;;;;5072891;28;20786;-86
2023/01/23 11:34:25;;;;;;;22.55;18.55;;;;;;;;;;5052548;28;20389;-86
2023/01/23 11:36:59;;;;;;;21.88;18.20;;;;;;;;;;5075510;28;20410;-87
2023/01/23 11:39:31;;;;;;;20.58;17.77;;;;;;;;;;5076711;28;20384;-87
2023/01/23 11:41:57;;;;;;;22.55;18.35;;;;;;;;;;5076032;28;20408;-86
2023/01/23 11:44:23;;;;;;;23.33;18.45;;;;;;;;;;5062741;28;20388;-87
2023/01/23 11:47:08;;;;;;;20.20;17.88;;;;;;;;;;5054698;28;20382;-87
2023/01/23 11:49:53;;;;;;;24.23;17.98;;;;;;;;;;5076196;28;20444;-86
2023/01/23 11:52:36;;;;;;;19.40;16.85;;;;;;;;;;5076346;28;20486;-87
2023/01/23 11:55:08;;;;;;;22.20;17.88;;;;;;;;;;5076919;28;20409;-86
2023/01/23 11:57:39;;;;;;;20.83;17.42;;;;;;;;;;5076519;28;20406;-86
2023/01/23 12:00:06;;;;;;;21.73;17.67;;;;;;;;;;5068580;28;20388;-87
2023/01/23 12:02:35;;;;;;;20.33;17.55;;;;;;;;;;5077488;28;20384;-86
2023/01/23 12:05:13;;;;;;;20.13;16.38;;;;;;;;;;5076174;28;20379;-87
2023/01/23 12:07:59;;;;;;;20.40;17.17;;;;;;;;;;5075175;28;20493;-88
2023/01/23 12:10:25;;;;;;;20.83;17.60;;;;;;;;;;5024766;28;20386;-86
2023/01/23 12:13:00;;;;;;;20.47;17.53;;;;;;;;;;5055832;28;20395;-85
2023/01/23 12:15:45;;;;;;;18.95;16.83;;;;;;;;;;5074680;28;20387;-86
2023/01/23 12:18:26;;;;;;;19.50;17.03;;;;;;;;;;5073746;28;20928;-86
2023/01/23 12:20:58;;;;;;;18.27;16.23;;;;;;;;;;5071903;28;20416;-87
2023/01/23 12:23:27;;;;;;;19.80;16.70;;;;;;;;;;5075469;28;20861;-86
2023/01/23 12:26:12;;;;;;;21.70;18.10;;;;;;;;;;5056435;28;20421;-86
2023/01/23 12:28:51;;;;;;;22.20;18.27;;;;;;;;;;5057129;28;20420;-86
2023/01/23 12:31:23;;;;;;;21.38;17.55;;;;;;;;;;5072987;28;20383;-86
2023/01/23 12:33:52;;;;;;;19.80;17.02;;;;;;;;;;5056803;28;20395;-85
2023/01/23 12:36:30;;;;;;;22.40;18.55;;;;;;;;;;5066943;28;20436;-86
2023/01/23 12:39:03;;;;;;;21.85;18.27;;;;;;;;;;5074699;28;20416;-87
2023/01/23 12:41:41;;;;;;;20.77;17.73;;;;;;;;;;5056552;28;20483;-89
2023/01/23 12:44:25;;;;;;;22.50;18.20;;;;;;;;;;5054552;28;20875;-84
2023/01/23 12:46:54;;;;;;;23.50;19.17;;;;;;;;;;5061211;28;20390;-90
2023/01/23 12:49:21;;;;;;;23.23;18.45;;;;;;;;;;5087825;28;20374;-89
2023/01/23 12:51:50;;;;;;;22.17;18.35;;;;;;;;;;5080316;28;20469;-87
2023/01/23 12:54:19;;;;;;;23.05;18.67;;;;;;;;;;5097618;28;20382;-87
2023/01/23 12:56:45;;;;;;;22.98;18.75;;;;;;;;;;5085907;28;20380;-87
2023/01/23 12:59:14;;;;;;;20.95;17.55;;;;;;;;;;5081849;28;20397;-86
2023/01/23 13:01:59;;;;;;;22.13;17.88;;;;;;;;;;5096792;28;20439;-87
2023/01/23 13:04:31;;;;;;;22.35;18.67;;;;;;;;;;5073385;28;20846;-86
2023/01/23 13:07:16;;;;;;;22.48;18.38;;;;;;;;;;5066730;28;20370;-86
2023/01/23 13:09:44;;;;;;;24.25;18.52;;;;;;;;;;5063833;28;20377;-88
2023/01/23 13:12:18;;;;;;;21.92;18.48;;;;;;;;;;5061175;28;20397;-87
2023/01/23 13:14:44;;;;;;;23.98;19.27;;;;;;;;;;5063337;28;20437;-86
2023/01/23 13:17:32;;;;;;;22.77;18.77;;;;;;;;;;5076117;28;20483;-87
2023/01/23 13:23:21;;;;;;;25.02;19.98;;;;;;;;;;5060900;28;20354;-87
2023/01/23 13:25:48;;;;;;;24.73;19.20;;;;;;;;;;5073828;28;20383;-87
2023/01/23 13:28:34;;;;;;;24.80;19.30;;;;;;;;;;5074085;28;20768;-86
2023/01/23 13:31:01;;;;;;;24.08;19.95;;;;;;;;;;5076396;28;20869;-87
2023/01/23 13:33:33;;;;;;;25.33;20.27;;;;;;;;;;5073576;28;20788;-87
2023/01/23 13:36:22;;;;;;;25.02;19.63;;;;;;;;;;5073364;28;20502;-87
2023/01/23 13:39:01;;;;;;;24.08;19.17;;;;;;;;;;5061046;28;20471;-88
2023/01/23 13:41:27;;;;;;;23.95;19.95;;;;;;;;;;5073264;28;20404;-87
2023/01/23 13:43:54;;;;;;;25.52;20.13;;;;;;;;;;5055452;28;20429;-88
2023/01/23 13:46:39;;;;;;;24.17;20.13;;;;;;;;;;5073386;28;20368;-88
2023/01/23 13:51:53;;;;;;;25.90;20.13;;;;;;;;;;5073157;28;20422;-87
2023/01/23 13:57:08;;;;;;;27.25;20.10;;;;;;;;;;5073015;28;20375;-87
2023/01/23 13:59:43;;;;;;;25.52;20.13;;;;;;;;;;5065380;28;20385;-86
2023/01/23 14:05:12;;;;;;;25.17;19.70;;;;;;;;;;5073110;28;20411;-86
2023/01/23 14:07:54;;;;;;;24.83;19.63;;;;;;;;;;5072978;28;20375;-85
2023/01/23 14:10:23;;;;;;;26.38;20.23;;;;;;;;;;5065298;28;20465;-87
2023/01/23 14:12:49;;;;;;;25.77;19.63;;;;;;;;;;5045129;28;20402;-88
2023/01/23 14:18:16;;;;;;;26.58;19.95;;;;;;;;;;5070186;28;20371;-89
2023/01/23 14:20:43;;;;;;;24.83;19.23;;;;;;;;;;5069697;28;20457;-84
2023/01/23 14:23:23;;;;;;;26.40;19.90;;;;;;;;;;5071430;28;20427;-87
2023/01/23 14:25:49;;;;;;;26.85;19.98;;;;;;;;;;5065449;28;20416;-87
2023/01/23 14:28:16;;;;;;;26.48;19.75;;;;;;;;;;5060208;28;20788;-88
2023/01/23 14:30:52;;;;;;;26.60;19.90;;;;;;;;;;5066329;28;20450;-87
2023/01/23 14:33:18;;;;;;;27.83;20.05;;;;;;;;;;5059128;28;20880;-88
2023/01/23 14:35:44;;;;;;;26.05;20.30;;;;;;;;;;5042541;28;20416;-88
2023/01/23 14:38:18;;;;;;;25.52;19.38;;;;;;;;;;5059597;28;20921;-89
2023/01/23 14:40:44;;;;;;;25.65;19.58;;;;;;;;;;5067744;28;20466;-88
2023/01/23 14:43:17;;;;;;;24.85;19.35;;;;;;;;;;5069662;28;20438;-88
2023/01/23 14:45:46;;;;;;;24.27;18.75;;;;;;;;;;5045451;28;20473;-89
2023/01/23 14:48:14;;;;;;;26.38;19.58;;;;;;;;;;5072766;28;20380;-87